Time;durP1;ratioP1;P1;durP2;ratioP2;P2;SDS_P1;SDS_P2;PMS_P1;PMS_P2;Temp;Humidity;BMP_temperature;BMP_pressure;BME280_temperature;BME280_humidity;BME280_pressure;Samples;Min_cycle;Max_cycle;Signal;HPM_P1;HPM_P2
2021/01/15 00:00:25;;;;;;;21.11;11.87;;;;;;;-4.85;69.55;98156.65;362930;110;1961974;-71
2021/01/15 00:01:30;;;;;;;23.31;12.01;;;;;;;-4.91;69.65;98158.06;336399;107;2665057;-71
2021/01/15 00:02:36;;;;;;;20.26;10.30;;;;;;;-4.90;69.53;98158.88;363833;107;1962050;-71
2021/01/15 00:03:41;;;;;;;21.96;11.01;;;;;;;-4.97;70.13;98161.28;372896;102;1961921;-71
2021/01/15 00:04:46;;;;;;;23.81;10.28;;;;;;;-4.98;70.03;98164.87;377169;107;1961996;-71
2021/01/15 00:05:52;;;;;;;23.66;11.08;;;;;;;-5.02;70.32;98165.33;381363;106;1962959;-71
2021/01/15 00:07:04;;;;;;;18.07;9.14;;;;;;;-5.01;70.17;98170.43;361077;105;2286926;-71
2021/01/15 00:08:09;;;;;;;19.56;10.15;;;;;;;-5.01;70.11;98165.16;374366;107;1962918;-71
2021/01/15 00:09:15;;;;;;;18.52;9.03;;;;;;;-4.93;70.35;98172.34;377291;105;1961950;-71
2021/01/15 00:10:21;;;;;;;15.78;8.81;;;;;;;-4.91;70.24;98176.50;353944;107;2419971;-71
2021/01/15 00:11:31;;;;;;;20.96;9.39;;;;;;;-4.81;70.09;98173.02;346808;106;1964013;-71
2021/01/15 00:12:38;;;;;;;17.25;8.71;;;;;;;-4.73;70.06;98175.74;378901;105;1961991;-71
2021/01/15 00:13:44;;;;;;;20.32;10.24;;;;;;;-4.62;70.03;98162.37;378317;105;1961919;-71
2021/01/15 00:14:49;;;;;;;16.02;8.23;;;;;;;-4.51;69.63;98174.52;340827;105;2678934;-72
2021/01/15 00:15:55;;;;;;;19.37;11.31;;;;;;;-4.45;69.17;98171.28;378265;107;1961999;-71
2021/01/15 00:17:02;;;;;;;17.64;8.90;;;;;;;-4.42;68.74;98168.34;378200;105;1961927;-71
2021/01/15 00:18:09;;;;;;;14.95;9.06;;;;;;;-4.39;68.97;98172.49;357437;105;1960909;-72
2021/01/15 00:19:14;;;;;;;16.16;8.39;;;;;;;-4.38;68.43;98168.89;378059;107;1961983;-72
2021/01/15 00:20:20;;;;;;;17.57;9.29;;;;;;;-4.44;68.61;98170.32;378114;107;1961964;-71
2021/01/15 00:21:31;;;;;;;17.39;9.15;;;;;;;-4.56;68.74;98169.67;357086;105;2405991;-71
2021/01/15 00:22:42;;;;;;;18.87;9.58;;;;;;;-4.59;68.89;98171.78;377364;105;1963983;-71
2021/01/15 00:23:48;;;;;;;19.34;10.52;;;;;;;-4.75;69.05;98172.42;378229;105;1970936;-70
2021/01/15 00:25:05;;;;;;;19.18;9.39;;;;;;;-4.78;69.21;98170.08;332116;105;2214952;-71
2021/01/15 00:26:20;;;;;;;21.16;11.29;;;;;;;-4.84;69.19;98179.40;364641;109;1961931;-71
2021/01/15 00:27:26;;;;;;;20.27;9.40;;;;;;;-4.88;69.16;98180.65;365909;108;1962084;-71
2021/01/15 00:28:31;;;;;;;18.67;10.68;;;;;;;-4.92;69.59;98180.11;331684;108;2680962;-71
2021/01/15 00:29:37;;;;;;;23.38;10.45;;;;;;;-4.99;69.34;98179.02;355262;109;1962949;-71
2021/01/15 00:30:42;;;;;;;21.03;10.09;;;;;;;-5.03;69.10;98175.01;364304;109;1962935;-71
2021/01/15 00:31:48;;;;;;;20.87;10.51;;;;;;;-5.06;69.54;98182.38;364154;111;1961997;-71
2021/01/15 00:32:53;;;;;;;19.91;10.09;;;;;;;-5.15;69.37;98178.80;345627;110;2387944;-71
2021/01/15 00:33:59;;;;;;;23.39;11.18;;;;;;;-5.19;69.53;98182.69;343159;109;1964987;-71
2021/01/15 00:35:07;;;;;;;20.05;10.24;;;;;;;-5.26;69.91;98186.87;367180;108;1961915;-72
2021/01/15 00:36:13;;;;;;;21.63;9.07;;;;;;;-5.30;69.49;98184.50;366641;103;1961984;-70
2021/01/15 00:37:18;;;;;;;20.14;10.71;;;;;;;-5.38;69.75;98191.45;361874;109;1961882;-71
2021/01/15 00:38:24;;;;;;;20.24;10.79;;;;;;;-5.42;69.73;98188.29;361814;111;1962080;-71
2021/01/15 00:39:29;;;;;;;22.91;11.39;;;;;;;-5.48;69.98;98183.57;336923;109;2571971;-71
2021/01/15 00:40:35;;;;;;;22.82;11.87;;;;;;;-5.57;70.10;98184.43;365354;109;1961973;-71
2021/01/15 00:41:44;;;;;;;19.12;11.29;;;;;;;-5.63;70.36;98191.08;366681;109;1961969;-71
2021/01/15 00:42:50;;;;;;;17.39;9.02;;;;;;;-5.74;70.84;98193.87;364277;111;1961936;-71
2021/01/15 00:43:56;;;;;;;19.07;9.04;;;;;;;-5.73;70.80;98187.63;364869;109;1962986;-71
2021/01/15 00:45:02;;;;;;;17.12;8.29;;;;;;;-5.73;70.85;98192.89;328980;109;2661970;-71
2021/01/15 00:46:14;;;;;;;18.32;8.24;;;;;;;-5.67;70.84;98189.69;358009;111;1965025;-72
2021/01/15 00:47:19;;;;;;;17.36;8.42;;;;;;;-5.53;70.43;98185.79;358265;111;1961959;-72
2021/01/15 00:48:25;;;;;;;16.78;8.20;;;;;;;-5.44;70.13;98195.48;339731;108;2480007;-71
2021/01/15 00:49:31;;;;;;;20.43;9.04;;;;;;;-5.38;70.26;98181.75;366203;109;1962009;-71
2021/01/15 00:50:36;;;;;;;17.98;8.54;;;;;;;-5.30;69.96;98189.77;368512;108;1961886;-72
2021/01/15 00:51:52;;;;;;;15.75;8.44;;;;;;;-5.23;69.75;98190.05;364989;109;1961967;-71
2021/01/15 00:52:59;;;;;;;18.14;9.26;;;;;;;-5.17;69.43;98192.09;360108;111;1963971;-71
2021/01/15 00:54:06;;;;;;;20.12;8.75;;;;;;;-5.09;69.01;98191.39;365293;108;1962002;-71
2021/01/15 00:55:12;;;;;;;22.75;10.44;;;;;;;-5.17;68.65;98194.73;335562;109;1961983;-71
2021/01/15 00:56:20;;;;;;;18.79;9.01;;;;;;;-5.19;68.80;98193.21;370968;107;1961902;-72
2021/01/15 00:57:25;;;;;;;18.70;10.24;;;;;;;-5.26;68.89;98187.70;349185;109;2206985;-72
2021/01/15 00:58:30;;;;;;;16.70;9.23;;;;;;;-5.31;68.87;98182.86;357149;107;1962057;-71
2021/01/15 00:59:35;;;;;;;21.52;9.05;;;;;;;-5.41;68.95;98182.05;370758;107;1963992;-72
2021/01/15 01:00:43;;;;;;;16.97;8.37;;;;;;;-5.52;69.32;98188.30;359785;107;2223028;-71
2021/01/15 01:02:03;;;;;;;22.36;10.85;;;;;;;-5.58;69.37;98193.30;371361;107;1962962;-71
2021/01/15 01:03:09;;;;;;;18.73;8.77;;;;;;;-5.58;69.50;98188.86;360023;110;1961898;-72
2021/01/15 01:04:14;;;;;;;17.99;8.83;;;;;;;-5.64;69.40;98186.77;363952;109;1961948;-71
2021/01/15 01:05:21;;;;;;;18.14;9.41;;;;;;;-5.66;69.53;98187.87;337717;109;2446980;-71
2021/01/15 01:06:27;;;;;;;16.30;9.19;;;;;;;-5.70;69.64;98199.67;363702;109;1962001;-71
2021/01/15 01:07:32;;;;;;;20.96;10.82;;;;;;;-5.74;69.43;98196.50;363783;109;1962066;-72
2021/01/15 01:08:38;;;;;;;21.94;10.17;;;;;;;-5.81;69.50;98190.95;344822;110;2316061;-71
2021/01/15 01:09:44;;;;;;;21.87;10.47;;;;;;;-5.83;69.94;98200.77;357083;111;1961034;-71
2021/01/15 01:10:51;;;;;;;19.84;9.67;;;;;;;-5.85;70.01;98194.80;362326;109;1960700;-72
2021/01/15 01:11:58;;;;;;;18.72;9.46;;;;;;;-5.85;70.09;98191.36;363016;109;1962037;-71
2021/01/15 01:13:04;;;;;;;18.17;8.88;;;;;;;-5.82;69.96;98191.08;364558;109;1960944;-71
2021/01/15 01:14:10;;;;;;;20.81;8.70;;;;;;;-5.78;69.97;98187.21;342257;106;2452803;-71
2021/01/15 01:15:15;;;;;;;15.66;8.41;;;;;;;-5.79;70.48;98189.02;356996;107;1960875;-71
2021/01/15 01:16:22;;;;;;;17.17;8.17;;;;;;;-5.73;70.25;98198.14;360459;106;1960844;-72
2021/01/15 01:17:28;;;;;;;17.03;8.43;;;;;;;-5.72;70.40;98191.08;313998;110;2867773;-71
2021/01/15 01:18:35;;;;;;;19.07;8.19;;;;;;;-5.67;70.53;98191.49;346334;108;1960865;-72
2021/01/15 01:19:41;;;;;;;15.34;8.11;;;;;;;-5.61;70.48;98194.41;363507;109;1960688;-71
2021/01/15 01:20:47;;;;;;;14.36;6.94;;;;;;;-5.50;70.12;98192.58;337626;109;1965308;-71
2021/01/15 01:21:52;;;;;;;13.36;7.68;;;;;;;-5.38;69.98;98196.72;362417;109;1961991;-72
2021/01/15 01:22:57;;;;;;;15.57;7.59;;;;;;;-5.27;69.69;98190.47;363605;109;1964014;-72
2021/01/15 01:24:04;;;;;;;15.78;7.69;;;;;;;-5.17;69.31;98193.91;369227;104;1960760;-72
2021/01/15 01:25:10;;;;;;;15.77;8.70;;;;;;;-5.07;69.09;98204.42;326720;106;2235997;-71
2021/01/15 01:26:17;;;;;;;19.31;10.10;;;;;;;-5.02;69.04;98194.30;372530;106;1962002;-72
2021/01/15 01:27:22;;;;;;;18.13;9.12;;;;;;;-5.01;68.84;98198.57;345788;106;2542978;-72
2021/01/15 01:28:28;;;;;;;16.27;8.36;;;;;;;-5.01;68.86;98202.03;361689;105;1962036;-71
2021/01/15 01:29:33;;;;;;;18.63;9.99;;;;;;;-5.03;68.44;98200.52;376078;105;1961995;-71
2021/01/15 01:30:41;;;;;;;22.59;10.66;;;;;;;-5.05;68.63;98195.41;375073;105;1962038;-72
2021/01/15 01:31:46;;;;;;;15.69;8.44;;;;;;;-5.07;68.65;98194.72;372983;105;1962064;-71
2021/01/15 01:32:53;;;;;;;16.22;8.49;;;;;;;-5.05;68.56;98199.81;376502;105;1962026;-71
2021/01/15 01:33:59;;;;;;;18.53;8.78;;;;;;;-5.07;68.61;98196.52;341138;105;2220906;-71
2021/01/15 01:35:06;;;;;;;19.94;9.39;;;;;;;-5.14;68.42;98194.44;373246;105;1961997;-71
2021/01/15 01:36:12;;;;;;;18.24;9.24;;;;;;;-5.18;68.31;98202.79;330033;107;2772964;-72
2021/01/15 01:37:18;;;;;;;16.79;8.74;;;;;;;-5.22;68.35;98204.03;375532;105;1961973;-71
2021/01/15 01:38:23;;;;;;;19.95;9.71;;;;;;;-5.23;68.69;98212.91;377896;105;1961956;-71
2021/01/15 01:39:29;;;;;;;17.75;9.23;;;;;;;-5.33;68.72;98210.29;378082;105;1963975;-71
2021/01/15 01:40:36;;;;;;;18.26;8.76;;;;;;;-5.33;69.09;98213.74;374049;105;1961943;-71
2021/01/15 01:41:42;;;;;;;22.46;9.71;;;;;;;-5.35;69.17;98204.33;377603;105;1960938;-71
2021/01/15 01:42:48;;;;;;;18.59;9.64;;;;;;;-5.37;69.48;98203.63;347754;105;2582009;-72
2021/01/15 01:43:53;;;;;;;16.80;10.17;;;;;;;-5.35;69.26;98210.41;369987;105;1963975;-71
2021/01/15 01:44:58;;;;;;;18.09;9.55;;;;;;;-5.41;69.07;98212.80;375447;105;1961940;-71
2021/01/15 01:46:06;;;;;;;20.31;9.86;;;;;;;-5.43;69.38;98206.84;376886;105;1962024;-72
2021/01/15 01:47:12;;;;;;;19.06;10.38;;;;;;;-5.46;69.45;98215.84;377484;105;1961982;-71
2021/01/15 01:48:19;;;;;;;19.31;9.52;;;;;;;-5.48;69.78;98215.14;369737;107;1962037;-71
2021/01/15 01:49:26;;;;;;;18.40;10.32;;;;;;;-5.48;69.70;98216.95;355344;105;1962975;-72
2021/01/15 01:50:33;;;;;;;20.22;10.09;;;;;;;-5.48;69.61;98219.58;377377;106;1961977;-71
2021/01/15 01:51:38;;;;;;;20.01;9.91;;;;;;;-5.57;70.25;98222.08;375049;106;1963019;-71
2021/01/15 01:52:44;;;;;;;19.57;9.99;;;;;;;-5.53;69.91;98222.63;376826;105;1962043;-71
2021/01/15 01:53:50;;;;;;;22.95;8.40;;;;;;;-5.54;70.12;98224.43;374468;105;1961973;-71
2021/01/15 01:54:55;;;;;;;17.18;9.07;;;;;;;-5.55;69.72;98222.78;349059;105;2484908;-71
2021/01/15 01:56:02;;;;;;;20.08;10.12;;;;;;;-5.50;69.64;98219.73;352878;107;1961996;-72
2021/01/15 01:57:09;;;;;;;16.99;7.89;;;;;;;-5.48;69.59;98222.21;371958;105;1961944;-71
2021/01/15 01:58:17;;;;;;;19.59;10.19;;;;;;;-5.46;69.47;98222.91;360545;108;1964035;-71
2021/01/15 01:59:22;;;;;;;17.15;9.09;;;;;;;-5.47;69.79;98223.89;361274;105;2287996;-70
2021/01/15 02:00:28;;;;;;;16.82;8.74;;;;;;;-5.48;69.87;98225.67;367204;107;1961996;-72
2021/01/15 02:01:34;;;;;;;19.28;9.70;;;;;;;-5.50;69.19;98234.67;374807;105;1961970;-72
2021/01/15 02:02:39;;;;;;;16.93;9.32;;;;;;;-5.54;69.58;98221.80;376179;105;1961927;-71
2021/01/15 02:04:03;;;;;;;17.24;10.08;;;;;;;-5.55;69.65;98228.05;338010;106;2664003;-72
2021/01/15 02:05:22;;;;;;;15.71;9.01;;;;;;;-5.63;69.33;98225.28;350209;107;2422949;-72
2021/01/15 02:06:29;;;;;;;18.02;9.84;;;;;;;-5.68;69.77;98224.86;339339;108;1962007;-71
2021/01/15 02:07:35;;;;;;;20.50;11.39;;;;;;;-5.70;69.73;98224.16;367441;108;1961938;-71
2021/01/15 02:08:40;;;;;;;19.31;9.78;;;;;;;-5.70;70.27;98228.59;369793;107;1961910;-71
2021/01/15 02:10:08;;;;;;;18.52;9.04;;;;;;;-5.72;70.40;98231.36;334079;108;2238014;-72
2021/01/15 02:11:35;;;;;;;16.38;8.80;;;;;;;-5.72;70.08;98233.16;366789;108;1961980;-71
2021/01/15 02:12:45;;;;;;;14.63;6.85;;;;;;;-5.74;70.35;98220.16;353519;109;1962105;-71
2021/01/15 02:14:25;;;;;;;16.52;7.80;;;;;;;-5.69;70.59;98233.70;350803;107;1961947;-71
2021/01/15 02:15:47;;;;;;;17.98;7.63;;;;;;;-5.68;70.11;98229.30;369035;107;1962023;-72
2021/01/15 02:16:55;;;;;;;16.88;7.74;;;;;;;-5.59;70.28;98223.19;346280;107;2396997;-71
2021/01/15 02:18:08;;;;;;;13.72;7.29;;;;;;;-5.53;69.99;98228.73;356737;111;1962080;-72
2021/01/15 02:19:29;;;;;;;14.44;7.31;;;;;;;-5.49;69.33;98233.72;365893;108;1962036;-71
2021/01/15 02:20:59;;;;;;;16.23;7.18;;;;;;;-5.41;68.93;98223.32;333013;108;2204950;-71
2021/01/15 02:22:32;;;;;;;15.23;6.69;;;;;;;-5.41;68.52;98236.48;345616;110;2399998;-70
2021/01/15 02:23:41;;;;;;;17.77;7.12;;;;;;;-5.54;67.68;98237.58;366749;110;1962019;-71
2021/01/15 02:25:00;;;;;;;18.19;7.71;;;;;;;-5.69;68.18;98225.81;365679;108;1962896;-71
2021/01/15 02:26:09;;;;;;;16.32;7.67;;;;;;;-5.76;68.34;98233.44;365977;108;1963981;-71
2021/01/15 02:27:25;;;;;;;14.79;7.37;;;;;;;-5.82;68.34;98233.15;366164;109;1962001;-71
2021/01/15 02:28:49;;;;;;;15.42;7.11;;;;;;;-5.92;68.45;98230.53;330234;108;2707097;-70
2021/01/15 02:30:13;;;;;;;18.41;7.85;;;;;;;-6.06;68.68;98223.05;328772;110;2427026;-71
2021/01/15 02:31:46;;;;;;;17.31;7.96;;;;;;;-6.09;68.99;98228.59;334243;110;2548975;-70
2021/01/15 02:33:19;;;;;;;16.01;7.75;;;;;;;-6.18;69.29;98227.62;323350;109;2774022;-71
2021/01/15 02:35:04;;;;;;;18.03;8.01;;;;;;;-6.22;69.14;98231.47;356177;111;1961747;-71
2021/01/15 02:36:15;;;;;;;19.26;8.40;;;;;;;-6.26;68.96;98236.17;342507;109;1961958;-72
2021/01/15 02:37:35;;;;;;;14.57;8.00;;;;;;;-6.34;69.03;98232.56;327270;108;2076199;-71
2021/01/15 02:38:50;;;;;;;17.42;8.05;;;;;;;-6.42;69.04;98230.61;354134;112;1962026;-71
2021/01/15 02:40:28;;;;;;;18.28;8.67;;;;;;;-6.45;69.37;98236.13;361561;108;1963005;-71
2021/01/15 02:41:34;;;;;;;16.53;8.29;;;;;;;-6.51;69.71;98232.25;365765;108;1961962;-70
2021/01/15 02:42:40;;;;;;;15.25;8.51;;;;;;;-6.53;69.53;98230.72;366788;108;1963938;-71
2021/01/15 02:43:54;;;;;;;20.53;10.25;;;;;;;-6.53;69.67;98234.17;367071;108;1961993;-72
2021/01/15 02:45:03;;;;;;;18.91;8.83;;;;;;;-6.54;69.83;98232.48;354118;109;2192017;-71
2021/01/15 02:46:11;;;;;;;17.88;8.38;;;;;;;-6.54;70.47;98236.92;355910;109;2202926;-71
2021/01/15 02:47:23;;;;;;;16.83;9.27;;;;;;;-6.55;70.41;98236.09;363054;109;1962055;-71
2021/01/15 02:48:31;;;;;;;13.42;6.91;;;;;;;-6.55;70.64;98235.27;365731;108;1961953;-72
2021/01/15 02:49:37;;;;;;;14.29;6.95;;;;;;;-6.52;70.51;98243.70;339825;108;2501915;-72
2021/01/15 02:50:47;;;;;;;13.83;6.26;;;;;;;-6.45;70.41;98242.21;366703;108;1962025;-72
2021/01/15 02:51:54;;;;;;;14.66;6.51;;;;;;;-6.37;70.03;98248.61;362953;108;1961984;-71
2021/01/15 02:53:00;;;;;;;12.85;6.22;;;;;;;-6.28;70.11;98247.78;365249;110;1960910;-71
2021/01/15 02:54:06;;;;;;;12.63;6.74;;;;;;;-6.27;69.39;98254.69;356171;109;1962964;-72
2021/01/15 02:55:12;;;;;;;14.47;8.05;;;;;;;-6.22;69.46;98244.61;364816;108;1962036;-71
2021/01/15 02:56:18;;;;;;;15.77;6.92;;;;;;;-6.09;69.81;98249.63;343963;108;2435017;-72
2021/01/15 02:57:23;;;;;;;15.47;7.62;;;;;;;-5.97;69.27;98248.55;345312;108;1963970;-72
2021/01/15 02:58:28;;;;;;;16.23;7.74;;;;;;;-5.94;69.46;98248.27;363582;108;1962900;-71
2021/01/15 02:59:33;;;;;;;12.82;6.86;;;;;;;-5.99;68.92;98248.67;363392;108;1964038;-72
2021/01/15 03:00:41;;;;;;;13.66;6.90;;;;;;;-6.01;68.81;98250.59;357282;105;1962031;-70
2021/01/15 03:01:59;;;;;;;18.74;7.82;;;;;;;-6.07;69.00;98245.06;369245;107;1962912;-71
2021/01/15 03:03:31;;;;;;;16.57;7.76;;;;;;;-6.14;69.02;98252.64;345064;107;1961962;-71
2021/01/15 03:05:00;;;;;;;13.83;6.98;;;;;;;-6.16;69.19;98245.89;367869;109;1961991;-71
2021/01/15 03:06:15;;;;;;;16.64;7.84;;;;;;;-6.20;69.21;98247.94;368293;108;1961853;-72
2021/01/15 03:07:23;;;;;;;14.58;7.87;;;;;;;-6.26;69.35;98251.12;340329;105;2594890;-70
2021/01/15 03:08:30;;;;;;;14.69;7.31;;;;;;;-6.32;69.65;98249.86;374683;105;1962002;-71
2021/01/15 03:09:38;;;;;;;16.38;7.77;;;;;;;-6.33;69.76;98255.23;344094;106;1985146;-72
2021/01/15 03:10:46;;;;;;;17.11;8.85;;;;;;;-6.37;69.64;98262.56;356309;106;1961909;-71
2021/01/15 03:11:59;;;;;;;17.38;8.47;;;;;;;-6.55;69.72;98236.09;375454;105;1962067;31
2021/01/15 03:13:06;;;;;;;16.63;8.32;;;;;;;-6.49;70.06;98248.68;379909;105;1960953;-71
2021/01/15 03:14:15;;;;;;;18.22;9.33;;;;;;;-6.50;70.43;98259.34;337682;105;2217096;-71
2021/01/15 03:15:23;;;;;;;14.61;6.46;;;;;;;-6.53;70.22;98255.19;362472;105;2898952;-71
2021/01/15 03:16:30;;;;;;;12.83;6.37;;;;;;;-6.56;69.96;98259.84;380958;105;1961813;-71
2021/01/15 03:17:39;;;;;;;13.10;6.69;;;;;;;-6.50;69.51;98260.17;371044;105;1960908;-70
2021/01/15 03:18:45;;;;;;;14.39;7.46;;;;;;;-6.40;69.53;98260.21;348568;106;1961995;-71
2021/01/15 03:19:51;;;;;;;13.57;6.37;;;;;;;-6.37;69.29;98259.11;379463;105;1960881;-71
2021/01/15 03:21:00;;;;;;;15.39;5.31;;;;;;;-6.34;68.58;98269.35;330335;106;2883032;-72
2021/01/15 03:22:16;;;;;;;12.60;6.22;;;;;;;-6.53;68.07;98264.86;376244;105;1963056;-71
2021/01/15 03:23:22;;;;;;;13.97;6.98;;;;;;;-6.55;68.80;98262.36;343306;105;2009839;-71
2021/01/15 03:24:27;;;;;;;15.08;6.28;;;;;;;-6.62;67.93;98263.02;374147;105;1961935;-72
2021/01/15 03:25:34;;;;;;;13.02;6.63;;;;;;;-6.68;67.78;98280.13;373443;106;1961961;-72
2021/01/15 03:26:40;;;;;;;13.30;5.89;;;;;;;-6.69;68.32;98271.43;375059;105;1962004;-71
2021/01/15 03:27:55;;;;;;;13.35;6.42;;;;;;;-6.78;68.54;98274.83;377191;105;1962073;-71
2021/01/15 03:29:03;;;;;;;14.06;6.93;;;;;;;-6.80;68.89;98282.02;375851;105;1961962;-72
2021/01/15 03:30:12;;;;;;;14.39;6.63;;;;;;;-6.87;69.18;98273.00;374818;106;1962041;-72
2021/01/15 03:31:18;;;;;;;13.19;6.09;;;;;;;-6.90;69.09;98276.71;374075;106;1961985;-73
2021/01/15 03:32:24;;;;;;;14.57;6.46;;;;;;;-6.91;68.96;98274.20;376253;105;1962009;-71
2021/01/15 03:33:30;;;;;;;15.42;6.34;;;;;;;-6.93;68.99;98273.50;375998;105;1962025;-72
2021/01/15 03:34:35;;;;;;;14.86;6.32;;;;;;;-6.98;69.43;98271.28;374982;106;1962065;-71
2021/01/15 03:35:41;;;;;;;14.82;6.94;;;;;;;-6.96;69.09;98286.88;373390;105;1962037;-71
2021/01/15 03:36:48;;;;;;;13.17;6.99;;;;;;;-7.01;68.86;98275.94;375887;106;1961942;-70
2021/01/15 03:38:08;;;;;;;14.25;6.78;;;;;;;-7.08;69.12;98271.22;372788;106;1961037;-71
2021/01/15 03:39:14;;;;;;;14.69;6.26;;;;;;;-7.05;69.11;98285.05;370401;107;1962027;-71
2021/01/15 03:40:19;;;;;;;16.87;6.96;;;;;;;-7.11;68.62;98281.97;348154;105;2188958;-72
2021/01/15 03:41:37;;;;;;;14.89;6.95;;;;;;;-7.13;68.77;98291.76;374898;106;1962058;-72
2021/01/15 03:42:42;;;;;;;14.07;7.34;;;;;;;-7.12;68.49;98287.34;332655;106;2768994;-72
2021/01/15 03:43:47;;;;;;;13.94;7.08;;;;;;;-7.22;68.90;98289.92;346306;108;1963899;-71
2021/01/15 03:44:53;;;;;;;13.72;6.48;;;;;;;-7.25;69.36;98291.95;365617;108;1961912;-71
2021/01/15 03:45:59;;;;;;;13.57;7.01;;;;;;;-7.28;69.44;98293.03;366455;108;1962018;-72
2021/01/15 03:47:05;;;;;;;13.46;6.37;;;;;;;-7.30;69.58;98293.17;328230;108;2096506;-71
2021/01/15 03:48:12;;;;;;;15.31;7.14;;;;;;;-7.26;69.38;98287.67;367495;108;1961954;-72
2021/01/15 03:49:18;;;;;;;14.18;6.68;;;;;;;-7.28;69.76;98292.20;354989;108;2252046;-71
2021/01/15 03:50:25;;;;;;;13.90;7.94;;;;;;;-7.28;69.27;98285.16;368164;108;1962976;-71
2021/01/15 03:51:31;;;;;;;13.64;6.46;;;;;;;-7.99;69.86;98175.64;357699;108;2852002;-72
2021/01/15 03:52:36;;;;;;;14.94;7.26;;;;;;;-7.26;69.45;98291.12;352117;108;1963981;-72
2021/01/15 03:53:46;;;;;;;16.24;6.85;;;;;;;-7.30;70.06;98287.10;364321;108;1961938;-72
2021/01/15 03:54:49;;;;;;;14.73;7.39;;;;;;;-7.26;69.46;98296.37;334312;108;2589848;-71
2021/01/15 03:55:54;;;;;;;12.32;6.18;;;;;;;-7.27;69.49;98296.52;346159;108;1963762;-70
2021/01/15 03:56:59;;;;;;;13.19;6.72;;;;;;;-7.30;69.76;98293.17;367445;108;1962014;-71
2021/01/15 03:58:05;;;;;;;14.99;7.67;;;;;;;-7.21;69.47;98293.37;367409;108;1964942;-71
2021/01/15 03:59:11;;;;;;;14.56;6.92;;;;;;;-7.20;69.60;98293.22;335105;108;2613966;-71
2021/01/15 04:00:19;;;;;;;14.19;8.12;;;;;;;-7.18;69.45;98286.06;366121;108;1964033;-71
2021/01/15 04:01:24;;;;;;;15.46;7.33;;;;;;;-7.14;69.39;98292.73;323415;109;2821995;-72
2021/01/15 04:02:30;;;;;;;17.21;7.37;;;;;;;-7.13;69.55;98291.76;368035;108;1961972;-71
2021/01/15 04:03:35;;;;;;;16.54;8.42;;;;;;;-7.13;69.76;98288.31;364729;109;1961970;-71
2021/01/15 04:04:41;;;;;;;16.33;8.15;;;;;;;-7.18;69.56;98286.06;363428;109;1961966;-71
2021/01/15 04:05:47;;;;;;;15.44;8.09;;;;;;;-7.14;69.77;98289.28;327585;108;2151096;-71
2021/01/15 04:06:54;;;;;;;14.93;7.26;;;;;;;-7.17;70.04;98294.76;368691;108;1960992;-71
2021/01/15 04:08:00;;;;;;;15.71;6.95;;;;;;;-7.16;70.03;98299.06;339715;108;2525006;-72
2021/01/15 04:09:05;;;;;;;14.56;5.68;;;;;;;-7.16;69.94;98296.44;346664;108;1963935;-71
2021/01/15 04:10:13;;;;;;;15.76;6.24;;;;;;;-7.16;70.32;98299.89;362522;108;1961992;-72
2021/01/15 04:11:19;;;;;;;12.59;6.38;;;;;;;-7.10;69.95;98293.30;338056;108;2203035;-71
2021/01/15 04:12:24;;;;;;;10.72;5.23;;;;;;;-7.02;69.73;98284.78;367878;108;1960733;-72
2021/01/15 04:13:30;;;;;;;12.57;5.75;;;;;;;-6.95;69.48;98292.02;365202;108;1961991;-72
2021/01/15 04:14:37;;;;;;;11.23;5.26;;;;;;;-6.94;68.91;98298.92;352337;108;2286955;-71
2021/01/15 04:15:42;;;;;;;13.50;5.53;;;;;;;-6.95;68.58;98294.64;364805;108;1961921;-71
2021/01/15 04:16:51;;;;;;;15.56;7.84;;;;;;;-7.01;68.28;98294.31;327794;108;2950020;-72
2021/01/15 04:18:00;;;;;;;15.04;6.29;;;;;;;-7.07;68.59;98293.03;364637;108;1963943;-71
2021/01/15 04:19:06;;;;;;;11.44;5.96;;;;;;;-7.13;68.70;98304.88;366610;109;1962264;-71
2021/01/15 04:20:14;;;;;;;11.31;6.26;;;;;;;-7.21;68.96;98306.48;338646;108;2228969;-71
2021/01/15 04:21:20;;;;;;;12.69;6.46;;;;;;;-7.18;69.13;98303.60;367057;108;1962029;-72
2021/01/15 04:22:25;;;;;;;13.98;8.69;;;;;;;-7.19;69.02;98301.95;348938;108;2396951;-71
2021/01/15 04:23:31;;;;;;;15.58;6.58;;;;;;;-7.25;68.83;98310.31;350696;108;1962050;-71
2021/01/15 04:24:36;;;;;;;14.92;6.57;;;;;;;-7.26;69.25;98306.86;365534;108;1962002;-71
2021/01/15 04:25:42;;;;;;;16.18;6.47;;;;;;;-7.23;69.28;98311.02;366034;108;1963031;-71
2021/01/15 04:26:56;;;;;;;12.40;6.31;;;;;;;-7.30;68.74;98310.71;356340;108;2244974;-72
2021/01/15 04:28:02;;;;;;;15.91;6.98;;;;;;;-7.32;68.59;98310.00;331096;108;2719026;-72
2021/01/15 04:29:08;;;;;;;15.64;7.83;;;;;;;-7.40;68.26;98308.00;366555;108;1962097;-72
2021/01/15 04:30:15;;;;;;;14.47;6.93;;;;;;;-7.50;68.72;98322.00;365950;108;1961964;-72
2021/01/15 04:31:20;;;;;;;15.42;7.01;;;;;;;-7.56;68.79;98304.98;344932;108;1962889;-72
2021/01/15 04:32:26;;;;;;;15.27;7.08;;;;;;;-7.60;69.11;98324.53;366274;108;1961969;-71
2021/01/15 04:33:34;;;;;;;13.79;6.57;;;;;;;-7.62;69.04;98306.31;364853;108;1962040;-72
2021/01/15 04:34:38;;;;;;;15.53;7.72;;;;;;;-7.60;69.27;98314.03;365761;108;1962116;-72
2021/01/15 04:35:43;;;;;;;18.38;8.93;;;;;;;-7.63;69.48;98301.18;366327;108;1962942;-71
2021/01/15 04:36:51;;;;;;;16.02;7.51;;;;;;;-7.64;69.18;98323.13;330968;108;2076527;-71
2021/01/15 04:37:56;;;;;;;16.33;8.23;;;;;;;-7.66;69.06;98319.79;365983;108;1961889;-71
2021/01/15 04:39:04;;;;;;;14.87;7.67;;;;;;;-7.71;68.77;98317.53;365466;108;1961979;-72
2021/01/15 04:40:10;;;;;;;14.25;7.15;;;;;;;-7.75;68.72;98313.51;365339;109;1961924;-71
2021/01/15 04:41:22;;;;;;;13.66;6.67;;;;;;;-7.76;69.34;98322.31;365534;108;1960956;-71
2021/01/15 04:42:31;;;;;;;21.74;7.44;;;;;;;-7.82;69.16;98323.64;367552;108;1962057;-71
2021/01/15 04:43:39;;;;;;;16.53;7.76;;;;;;;-7.77;69.15;98325.90;365755;108;1962003;-72
2021/01/15 04:44:48;;;;;;;14.72;7.28;;;;;;;-7.77;69.07;98323.28;340620;108;2184963;-71
2021/01/15 04:45:55;;;;;;;16.22;7.42;;;;;;;-7.83;69.37;98321.12;334009;108;2656961;-72
2021/01/15 04:47:02;;;;;;;20.02;8.00;;;;;;;-7.82;68.91;98346.41;365659;108;1961947;-72
2021/01/15 04:48:12;;;;;;;15.84;7.57;;;;;;;-7.84;68.94;98335.20;370008;103;1960780;-72
2021/01/15 04:49:21;;;;;;;16.89;7.92;;;;;;;-7.83;68.87;98326.38;361160;109;1962078;-71
2021/01/15 04:50:27;;;;;;;14.66;7.54;;;;;;;-7.87;69.16;98341.52;371948;106;1963972;-71
2021/01/15 04:51:36;;;;;;;15.84;8.26;;;;;;;-7.85;69.20;98344.86;371887;106;1961928;-71
2021/01/15 04:52:50;;;;;;;15.57;7.88;;;;;;;-7.85;69.09;98338.79;372166;106;1962023;-71
2021/01/15 04:54:01;;;;;;;17.48;8.60;;;;;;;-7.87;69.14;98341.52;372357;106;1962013;-72
2021/01/15 04:55:12;;;;;;;16.90;7.77;;;;;;;-7.88;69.04;98341.66;372273;106;1960826;-71
2021/01/15 04:56:22;;;;;;;18.31;7.37;;;;;;;-7.90;69.37;98344.39;372342;106;1960854;-71
2021/01/15 04:57:30;;;;;;;14.29;7.32;;;;;;;-7.88;69.30;98345.11;372705;106;1960780;-72
2021/01/15 04:58:39;;;;;;;17.03;8.31;;;;;;;-7.88;69.26;98355.59;365184;106;1960888;-72
2021/01/15 04:59:47;;;;;;;16.38;8.99;;;;;;;-7.84;69.19;98345.69;370777;107;1960884;-71
2021/01/15 05:00:57;;;;;;;16.33;8.14;;;;;;;-7.87;69.29;98345.94;339262;106;2232001;-71
2021/01/15 05:02:08;;;;;;;15.65;8.47;;;;;;;-7.87;69.73;98345.94;334494;106;2093382;-72
2021/01/15 05:03:14;;;;;;;19.03;9.09;;;;;;;-7.86;69.73;98339.73;372388;107;1962970;-72
2021/01/15 05:04:20;;;;;;;16.12;8.97;;;;;;;-7.86;69.39;98356.31;331816;109;2656004;-72
2021/01/15 05:05:27;;;;;;;18.56;8.53;;;;;;;-7.85;69.36;98360.59;356439;109;1962004;-71
2021/01/15 05:06:46;;;;;;;19.80;10.02;;;;;;;-7.94;69.56;98363.92;335494;107;2024548;-72
2021/01/15 05:08:17;;;;;;;16.49;8.44;;;;;;;-7.91;69.58;98350.59;344538;108;1961995;-72
2021/01/15 05:09:25;;;;;;;19.22;9.72;;;;;;;-7.92;69.86;98358.57;365504;108;1961994;-71
2021/01/15 05:10:35;;;;;;;19.56;8.53;;;;;;;-7.97;69.83;98358.92;342904;106;1985826;-72
2021/01/15 05:11:42;;;;;;;15.49;8.28;;;;;;;-7.97;69.87;98362.37;331401;106;2177311;-72